Date,TemperatureHighF,TemperatureAvgF,TemperatureLowF,DewpointHighF,DewpointAvgF,DewpointLowF,HumidityHigh,HumidityAvg,HumidityLow,PressureMaxIn,PressureMinIn,WindSpeedMaxMPH,WindSpeedAvgMPH,GustSpeedMaxMPH,PrecipitationSumIn
2013-1-1,22.8,10.8,4.3,6.5,-1.6,-7.2,66,57,46,30.18,30.09,5,0,5,0.00
2013-1-2,30.2,20.5,7.9,15.7,7.3,-6.5,68,57,43,30.12,30.00,12,2,12,0.00
2013-1-3,27.3,23.0,13.8,17.5,14.3,5.3,75,69,62,30.18,30.00,6,1,6,0.00
2013-1-4,33.6,21.2,10.8,17.4,10.4,2.6,75,63,50,30.15,30.03,7,2,7,0.00
2013-1-5,35.4,26.7,14.4,32.7,20.5,7.7,95,78,62,30.18,29.85,9,2,10,0.04
2013-1-6,34.7,27.2,17.6,31.1,19.6,11.2,89,73,58,30.27,29.85,6,1,7,0.00
2013-1-7,39.4,26.6,12.2,24.0,16.8,6.1,79,67,49,30.24,30.00,17,2,17,0.00
2013-1-8,41.7,32.7,21.9,28.6,24.3,16.4,84,71,55,30.09,29.94,12,3,12,0.17
2013-1-9,42.6,34.7,25.9,28.6,23.7,18.1,76,65,48,30.42,29.91,10,1,10,0.08
2013-1-10,40.5,30.6,20.3,35.1,25.2,14.5,96,80,70,30.44,29.88,10,2,13,0.21
2013-1-11,50.7,43.0,36.1,48.0,42.0,35.1,98,96,84,29.88,29.65,15,3,15,0.08
2013-1-12,51.1,39.1,26.1,45.7,30.3,16.4,85,71,59,29.97,29.65,17,2,17,0.00
2013-1-13,26.1,20.6,13.8,20.1,10.7,1.7,80,66,57,30.15,29.85,6,1,7,0.00
2013-1-14,29.8,17.1,9.7,11.5,3.8,-1.8,64,56,44,30.39,30.15,6,0,6,0.00
2013-1-15,34.7,21.2,12.6,15.8,8.8,3.2,74,59,43,30.36,30.06,9,1,9,0.00
2013-1-16,33.1,25.9,15.1,26.7,14.6,5.0,77,62,49,30.06,29.74,8,2,10,0.00
2013-1-17,29.8,20.9,13.5,14.3,5.1,1.2,59,50,41,30.33,30.03,8,1,8,0.00
2013-1-18,41.7,29.1,12.9,27.8,17.3,1.3,69,61,51,30.36,29.83,18,4,22,0.08
2013-1-19,45.5,37.4,19.9,32.7,26.0,2.5,72,64,39,29.88,29.65,12,2,12,0.00
2013-1-20,20.8,13.0,7.7,2.5,-4.2,-8.4,47,46,43,30.24,29.88,10,1,14,0.00
2013-1-21,11.7,5.7,-2.6,-5.6,-11.1,-18.7,45,45,45,30.21,30.06,10,1,10,0.00
2013-1-22,12.4,2.5,-6.0,-5.1,-14.1,-21.9,45,45,45,30.30,30.21,6,1,8,0.00
2013-1-23,18.5,11.9,3.9,7.6,-1.9,-12.9,67,54,45,30.33,30.03,10,2,13,0.00
2013-1-24,20.5,10.6,0.0,4.0,-1.9,-9.3,64,57,45,30.56,30.30,6,2,12,0.00
2013-1-25,25.0,19.9,14.4,13.2,7.6,1.6,69,59,47,30.30,29.91,13,2,13,0.00
2013-1-26,32.2,19.0,7.5,12.2,4.9,-2.5,63,54,42,30.33,30.15,7,1,7,0.00
2013-1-27,33.1,27.7,22.6,30.5,18.8,8.6,90,70,53,30.33,29.85,13,3,13,0.00
2013-1-28,45.9,36.9,32.4,38.0,33.7,27.7,98,89,68,29.94,29.77,8,1,8,0.09
2013-1-29,57.9,45.2,35.4,57.4,44.6,33.9,98,98,94,29.83,29.47,11,1,13,0.91
2013-1-30,37.2,29.0,16.2,36.7,26.0,9.5,98,89,74,29.59,29.26,10,1,10,0.21
2013-1-31,16.9,12.1,2.8,10.3,1.7,-8.3,76,63,54,30.09,29.59,0,0,0,0.00
2013-2-1,9.3,3.5,-2.7,-2.1,-7.6,-13.5,59,59,59,30.24,30.09,0,0,0,0.00
2013-2-2,18.7,10.2,4.6,4.4,-2.5,-9.2,60,56,51,30.09,29.97,0,0,0,0.00
2013-2-3,27.0,14.0,5.2,10.8,0.8,-8.6,70,55,47,30.00,29.88,5,0,6,0.00
2013-2-4,23.7,16.0,8.2,12.5,6.3,-4.3,75,65,56,29.97,29.88,7,2,8,0.00
2013-2-5,27.7,18.5,2.5,21.4,9.3,-9.7,78,67,56,30.06,29.74,8,1,8,0.00
2013-2-6,35.6,21.9,1.6,26.3,11.6,-7.8,77,64,52,30.18,30.06,10,1,10,0.00
2013-2-7,33.8,32.0,23.4,31.0,28.3,19.8,95,86,77,30.09,29.85,6,1,6,0.00
2013-2-8,26.8,21.3,12.2,20.2,15.6,5.5,86,79,71,30.33,30.00,4,0,4,0.00
2013-2-9,29.5,17.6,5.9,22.5,11.4,-0.6,83,76,74,30.33,30.06,6,1,7,0.00
2013-2-10,42.1,31.8,16.0,41.6,29.5,10.0,98,91,75,30.06,29.44,16,3,18,0.00
2013-2-11,39.0,31.4,26.2,32.1,23.8,17.1,81,73,66,29.94,29.44,17,2,19,0.00
2013-2-12,33.3,24.4,16.9,19.1,14.9,10.2,78,67,52,30.06,29.85,6,1,6,0.00
2013-2-13,41.0,27.0,12.9,28.3,19.3,7.6,87,73,55,29.85,29.68,8,1,9,0.00
2013-2-14,35.6,32.8,26.4,31.6,26.2,18.6,86,77,64,29.94,29.56,8,1,8,0.00
2013-2-15,32.5,22.4,13.5,22.5,8.9,-0.3,79,56,42,30.15,29.94,7,1,7,0.00
2013-2-16,21.6,12.7,6.3,2.6,-3.0,-10.6,55,49,43,30.15,30.06,6,1,6,0.00
2013-2-17,30.6,16.5,2.5,10.2,-0.4,-14.1,63,47,41,30.15,29.94,9,2,9,0.00
2013-2-18,45.7,34.1,23.9,38.0,23.9,8.8,92,67,52,29.94,29.41,12,3,16,0.00
2013-2-19,31.1,15.7,7.5,28.8,6.7,-3.8,91,68,56,30.09,29.50,8,1,8,0.00
2013-2-20,25.5,13.0,5.4,9.4,0.4,-5.9,64,57,47,30.30,30.09,8,1,9,0.00
2013-2-21,26.1,20.0,10.9,21.6,12.2,0.8,83,72,63,30.36,30.03,13,3,17,0.00
2013-2-22,32.7,27.9,24.4,27.1,23.4,19.6,90,83,76,30.03,29.77,12,3,14,0.00
2013-2-23,31.3,25.1,18.5,21.8,16.4,10.0,82,70,55,29.91,29.83,8,1,11,0.00
2013-2-24,42.3,26.2,13.1,24.9,15.4,6.7,79,65,45,30.09,29.88,4,0,4,0.00
2013-2-25,44.2,28.4,15.1,27.4,18.4,7.7,79,67,50,30.12,30.00,7,1,7,0.00
2013-2-26,34.3,32.5,30.4,31.7,26.3,21.1,98,79,59,30.00,29.59,17,6,18,0.00
2013-2-27,34.7,31.9,29.5,31.3,29.5,25.7,96,91,84,29.74,29.53,9,2,10,0.00
2013-2-28,34.3,30.9,24.4,29.6,24.3,15.9,91,77,64,30.09,29.71,10,3,10,0.00
2013-3-1,25.0,23.9,22.3,17.6,15.5,11.9,75,70,63,30.21,30.03,9,3,10,0.00
2013-3-2,33.4,20.7,7.9,15.7,8.1,-2.8,68,58,44,30.18,30.12,7,2,8,0.00
2013-3-3,36.9,17.0,3.9,15.3,2.4,-6.6,73,53,40,30.12,30.03,6,1,6,0.00
2013-3-4,34.9,22.9,8.1,20.3,10.7,-5.6,68,59,52,30.09,30.00,10,2,10,1.20
2013-3-5,30.9,29.2,26.1,26.1,23.1,19.9,89,78,67,30.03,29.85,12,4,12,0.00
2013-3-6,35.4,29.8,25.7,25.6,22.6,20.0,81,74,63,30.27,30.00,8,1,8,0.00
2013-3-7,42.4,28.4,17.8,22.9,17.2,9.6,74,63,44,30.39,30.24,6,0,6,0.04
2013-3-8,45.5,27.1,11.7,28.4,17.7,4.4,81,68,48,30.42,30.27,10,1,10,0.00
2013-3-9,40.3,34.1,27.1,31.7,26.8,19.6,85,75,62,30.27,29.83,12,2,12,0.12
2013-3-10,42.4,38.1,34.7,41.9,37.1,30.8,98,96,85,29.83,29.62,10,1,10,0.59
2013-3-11,38.1,34.3,30.7,37.6,33.6,27.9,98,97,89,29.74,29.53,6,0,6,0.08
2013-3-12,35.4,29.9,24.6,28.1,23.6,18.7,89,78,56,29.97,29.74,6,0,6,0.00
2013-3-13,37.2,25.3,18.7,19.2,10.9,6.4,79,55,40,30.27,29.94,9,1,10,0.00
2013-3-14,39.2,26.8,16.2,24.0,15.2,6.1,79,62,47,30.27,30.03,9,1,9,0.04
2013-3-15,37.2,32.0,28.2,31.6,27.2,22.9,89,82,75,30.03,29.80,11,2,11,0.04
2013-3-16,36.1,28.9,25.5,26.4,20.8,14.3,87,73,49,30.09,29.77,11,3,14,0.00
2013-3-17,35.1,26.3,19.8,19.3,13.0,6.2,70,57,48,30.21,30.00,10,3,11,0.00
2013-3-18,35.8,29.0,19.2,29.9,22.3,8.3,87,76,60,30.00,29.56,9,3,10,0.09
2013-3-19,34.5,21.9,12.9,14.0,7.4,2.7,66,54,42,30.00,29.71,8,2,8,0.00
2013-3-20,19.8,15.2,11.7,4.6,0.6,-2.6,53,52,49,30.00,29.00,5,0,5,0.00
2013-3-21,35.2,20.2,9.9,14.8,4.2,-4.3,56,49,41,30.00,29.94,8,1,8,0.00
2013-3-22,40.8,24.5,13.8,18.6,9.0,2.6,62,52,39,30.03,29.97,6,0,6,0.00
2013-3-23,45.1,29.7,19.4,24.5,16.7,9.4,70,59,42,30.09,30.03,8,2,10,0.00
2013-3-24,35.6,31.9,29.7,25.9,21.7,17.1,74,66,59,30.03,29.74,14,4,23,0.00
2013-3-25,34.9,30.9,27.3,24.5,20.7,16.9,79,66,53,30.06,29.74,14,3,14,0.00
2013-3-26,44.1,34.9,30.2,26.6,21.3,19.2,67,58,46,30.21,30.06,6,1,8,0.00
2013-3-27,42.1,35.2,27.3,22.0,18.5,14.2,61,51,39,30.30,30.21,7,0,7,0.00
2013-3-28,52.5,35.6,24.3,26.3,18.0,12.7,66,50,34,30.30,30.24,7,1,7,0.00
2013-3-29,55.9,37.5,23.5,27.9,19.3,13.8,73,50,30,30.30,30.21,6,1,6,0.00
2013-3-30,58.5,42.3,25.5,37.4,27.1,14.4,70,56,41,30.21,29.83,15,3,15,0.00
2013-3-31,55.8,42.3,30.0,39.8,31.7,17.6,85,67,41,29.88,29.68,9,1,9,0.00
2013-4-1,42.1,31.1,25.3,18.9,12.9,7.1,67,47,36,30.15,29.88,11,1,11,0.00
2013-4-2,46.2,30.3,21.2,19.2,10.9,6.7,59,45,31,30.30,30.15,7,1,7,0.00
2013-4-3,50.4,33.2,21.9,21.1,12.7,6.6,58,43,29,30.42,30.27,10,2,10,0.00
2013-4-4,60.6,41.7,25.2,32.8,21.2,9.0,56,44,34,30.27,29.94,12,1,12,0.00
2013-4-5,52.2,38.6,27.9,28.1,21.9,16.5,75,52,38,30.21,30.00,9,3,10,0.00
2013-4-6,62.8,47.5,33.8,47.4,31.0,17.7,83,54,36,30.15,29.56,23,5,23,0.00
2013-4-7,60.1,45.6,35.1,47.3,33.7,26.2,85,64,39,29.97,29.56,9,2,10,0.00
2013-4-8,56.1,42.4,34.7,48.0,37.2,26.6,97,82,69,29.97,29.59,8,2,9,0.00
2013-4-9,40.3,38.3,36.9,39.4,37.4,35.7,98,96,88,30.00,29.85,17,4,17,0.00
2013-4-10,38.1,36.3,34.0,37.2,35.5,32.4,98,97,93,30.03,29.83,17,5,17,0.00
2013-4-11,37.8,36.6,34.9,37.2,36.0,33.8,98,98,95,29.91,29.56,19,6,20,0.00
2013-4-12,43.9,37.5,34.3,41.6,35.3,28.8,98,92,77,29.83,29.50,6,1,6,0.00
2013-4-13,39.0,35.8,30.2,29.8,26.5,23.2,82,69,57,29.97,29.77,6,1,7,0.00
2013-4-14,50.5,38.9,30.2,46.0,33.6,23.9,95,82,66,29.97,29.65,14,3,14,0.00
2013-4-15,61.2,51.1,41.2,52.6,44.4,34.2,98,79,47,29.97,29.62,30,2,30,0.00
2013-4-16,58.1,43.2,32.7,38.6,32.7,28.8,94,69,39,30.27,29.94,8,1,8,0.00
2013-4-17,42.3,40.4,38.5,41.7,34.7,27.0,98,81,60,30.30,29.85,16,4,16,0.00
2013-4-18,56.1,46.4,38.8,55.4,45.3,32.9,98,96,78,29.85,29.38,13,2,13,0.00
2013-4-19,41.0,36.3,30.2,33.8,26.3,20.6,82,67,52,29.88,29.38,12,2,12,0.00
2013-4-20,49.5,34.8,24.6,24.9,17.5,13.2,67,50,35,30.39,29.88,8,1,8,0.00
2013-4-21,53.6,39.9,27.0,29.1,23.2,18.1,74,53,37,30.48,30.27,15,4,15,0.00
2013-4-22,62.4,40.3,0.0,37.3,30.5,24.0,70,42,36,30.27,29.06,11,3,12,0.00
2013-4-23,54.7,44.3,37.4,47.1,37.7,29.9,94,79,50,30.03,29.88,6,2,6,0.42
2013-4-24,57.9,43.0,33.6,30.5,26.4,22.1,78,54,34,30.03,29.91,9,2,12,0.00
2013-4-25,54.9,44.7,35.6,33.5,28.4,22.7,74,54,37,30.27,29.97,8,1,9,0.00
2013-4-26,69.1,51.6,32.9,43.2,34.0,23.7,72,53,37,30.27,30.15,22,4,22,0.00
2013-4-27,72.3,56.8,43.3,47.4,41.1,35.4,84,58,36,30.27,30.03,11,2,12,0.00
2013-4-28,75.7,57.8,48.9,51.5,43.1,35.5,78,59,37,30.03,29.83,6,1,8,0.00
2013-4-29,70.5,58.8,45.1,53.8,48.1,41.5,95,70,45,29.88,29.77,13,2,13,0.00
2013-4-30,73.0,34.5,0.0,59.8,56.2,48.8,82,38,45,29.91,28.88,15,2,15,0.00
2013-5-1,87.4,71.6,50.9,54.7,50.1,36.6,71,49,28,30.21,29.91,12,3,13,0.00
2013-5-2,58.6,48.2,39.4,48.6,38.4,30.7,94,70,49,30.24,30.15,10,3,10,0.74
2013-5-3,47.8,42.9,38.1,47.3,42.0,36.5,98,97,94,30.18,29.97,9,3,9,0.67
2013-5-4,72.0,56.9,45.3,55.2,46.6,40.0,98,72,42,30.06,29.97,10,2,10,0.00
2013-5-5,73.2,57.6,44.2,48.3,41.3,34.2,83,57,35,30.06,30.00,9,2,10,0.00
2013-5-6,77.4,59.8,44.6,45.4,38.6,33.1,73,48,27,30.09,30.00,8,1,8,0.00
2013-5-7,80.8,62.2,46.2,46.9,40.0,32.4,72,46,30,30.06,30.00,6,1,6,0.00
2013-5-8,86.5,62.9,45.1,50.0,42.9,36.9,82,52,28,30.06,29.97,7,1,7,0.00
2013-5-9,68.5,56.9,43.7,55.6,48.0,41.0,93,73,52,30.00,29.88,8,1,10,0.04
2013-5-10,48.6,44.9,40.6,44.1,42.4,37.4,98,91,81,29.97,29.83,8,2,10,0.96
2013-5-11,55.9,46.1,37.4,50.0,35.7,23.5,98,71,37,30.00,29.80,10,1,12,0.00
2013-5-12,60.1,45.2,36.0,33.4,25.2,20.9,62,46,32,30.09,30.00,8,2,8,0.00
2013-5-13,67.5,47.4,32.2,37.3,29.9,24.6,80,53,27,30.15,29.97,9,2,9,0.00
2013-5-14,88.0,66.1,46.2,57.1,45.4,28.3,68,49,28,29.97,29.62,10,2,11,0.00
2013-5-15,84.9,69.9,55.9,57.4,46.3,38.4,65,44,25,29.85,29.59,7,1,10,0.00
2013-5-16,81.3,64.5,51.6,50.9,42.0,30.8,71,46,30,30.00,29.85,10,2,10,0.00
2013-5-17,66.6,56.5,50.0,49.9,40.7,29.2,85,57,39,30.09,29.97,9,2,10,0.00
2013-5-18,81.5,64.6,51.1,62.3,51.6,42.1,76,64,46,30.06,29.97,8,2,9,0.12
2013-5-19,88.2,69.9,54.5,65.9,58.0,50.1,89,68,43,29.97,29.77,14,2,14,0.00
2013-5-20,88.3,74.4,64.0,64.5,57.8,51.3,89,59,32,29.80,29.71,14,2,14,0.00
2013-5-21,81.5,69.2,60.4,64.3,58.1,51.1,89,70,41,29.74,29.68,13,2,14,0.00
2013-5-22,67.6,61.1,54.5,65.1,58.0,53.0,96,90,80,29.80,29.65,6,1,6,0.62
2013-5-23,59.5,50.3,39.4,53.1,43.9,31.4,96,80,56,30.30,29.80,8,2,8,0.04
2013-5-24,68.4,48.2,35.1,44.8,34.0,29.7,85,60,36,30.42,30.30,6,1,7,0.09
2013-5-25,62.2,51.8,41.7,40.2,35.2,27.4,78,55,37,30.39,30.30,8,1,8,0.00
2013-5-26,69.3,53.3,37.9,45.2,37.9,28.4,78,58,36,30.30,30.15,11,2,11,0.00
2013-5-27,54.0,52.3,50.4,52.3,47.3,37.1,95,84,56,30.18,29.91,11,3,12,0.00
2013-5-28,67.5,19.5,0.0,66.4,52.7,49.3,98,33,95,29.91,28.73,4,0,4,0.41
2013-5-29,85.1,70.2,62.1,69.2,64.0,61.4,98,83,53,29.94,29.80,10,1,10,0.00
2013-5-30,86.2,74.8,63.3,67.9,63.9,59.8,90,70,49,29.91,29.80,26,5,26,0.00
2013-5-31,75.7,68.1,62.6,67.7,62.0,57.7,97,82,57,29.88,29.74,14,3,17,0.13
2013-6-1,81.1,69.9,61.3,66.0,62.5,58.4,94,79,52,29.74,29.65,13,2,13,0.20
2013-6-2,61.3,55.4,46.0,58.4,45.9,38.7,92,71,52,30.03,29.71,6,1,7,0.00
2013-6-3,75.4,57.0,42.4,51.5,42.4,33.9,94,63,33,30.09,30.00,5,2,5,0.00
2013-6-4,72.9,59.2,48.6,48.2,42.4,36.4,78,55,36,30.18,30.09,8,2,10,0.00
2013-6-5,65.8,58.0,52.3,52.7,46.0,39.7,80,65,52,30.15,29.97,8,2,8,0.00
2013-6-6,60.4,56.1,53.1,53.5,49.0,45.5,84,77,68,29.97,29.91,5,1,6,0.00
2013-6-7,76.5,61.1,51.1,51.2,44.4,35.6,82,57,29,29.97,29.91,9,1,10,0.00
2013-6-8,75.6,59.9,46.4,52.5,45.0,40.6,85,61,33,30.03,29.94,5,1,6,0.00
2013-6-9,79.5,66.4,54.1,59.2,52.5,45.5,76,62,45,30.03,29.85,12,2,14,0.00
2013-6-10,82.0,68.6,60.8,66.4,60.2,54.8,90,76,48,29.88,29.80,6,0,6,0.00
2013-6-11,85.6,60.8,58.6,66.9,57.4,55.9,95,89,52,29.91,29.83,1,0,2,0.00
2013-6-12,78.6,69.6,62.6,65.9,62.5,57.3,98,79,58,29.91,29.68,10,2,10,0.00
2013-6-13,78.4,65.4,55.9,62.0,54.1,46.6,98,70,42,30.09,29.71,7,1,7,0.00
2013-6-14,82.2,64.4,51.4,59.7,50.4,43.5,86,63,39,30.15,30.03,6,1,6,0.00
2013-6-15,82.0,66.6,55.6,71.9,60.9,46.2,98,83,65,30.09,29.85,7,1,7,0.00
2013-6-16,87.1,72.7,63.9,67.8,63.3,55.3,98,76,38,29.91,29.85,6,1,6,0.00
2013-6-17,87.1,86.9,86.5,61.2,60.6,59.3,42,41,40,29.91,29.91,4,2,5,0.00
2013-6-22,69.1,68.5,67.8,66.2,65.8,65.2,93,91,88,30.06,30.00,4,0,4,0.00
2013-6-23,89.2,74.5,63.5,75.0,66.9,62.0,97,79,55,30.03,29.88,11,2,12,0.00
2013-6-24,84.0,73.0,66.7,70.5,66.4,63.5,95,81,61,30.06,29.85,7,1,8,0.00
2013-6-25,82.2,71.1,65.5,76.0,68.5,64.5,98,92,78,29.97,29.83,11,1,11,0.00
2013-6-26,78.8,70.9,67.3,71.2,67.4,65.5,98,89,67,29.85,29.74,11,1,11,0.00
2013-6-27,87.6,73.0,64.8,74.8,68.2,62.4,98,86,54,29.83,29.71,6,0,8,0.00
2013-6-28,82.2,70.9,63.5,65.4,61.4,56.3,96,74,47,29.77,29.62,8,1,8,0.00
2013-6-30,62.8,62.6,62.4,43.2,43.0,42.8,49,49,48,30.03,30.03,0,0,0,0.00
2013-7-1,77.5,68.6,60.6,47.3,43.4,41.4,61,41,31,30.12,30.09,8,1,8,0.00
2013-7-2,76.8,63.4,56.5,53.4,48.5,40.8,83,60,34,30.12,30.09,6,1,6,0.00
2013-7-3,68.4,64.4,60.1,62.8,57.8,48.4,91,79,65,30.09,30.03,3,0,5,0.00
2013-7-4,87.6,71.5,57.6,63.9,59.6,54.4,95,70,36,30.12,30.03,8,1,8,0.00
2013-7-5,89.1,73.5,60.4,66.9,59.7,53.4,92,65,39,30.12,30.03,10,1,10,0.00
2013-7-6,90.1,72.1,59.7,66.2,61.1,55.3,93,72,35,30.09,29.97,7,1,8,0.00
2013-7-7,79.3,71.4,66.9,70.2,66.1,62.7,93,84,69,30.03,29.94,6,0,6,0.00
2013-7-8,90.9,76.0,71.2,78.3,70.3,65.9,93,83,63,30.03,29.94,7,1,10,0.00
2013-7-9,82.9,73.4,67.1,79.0,71.1,66.1,97,92,79,30.03,29.85,6,1,6,0.00
2013-7-10,82.2,73.3,62.1,73.3,61.5,50.0,98,70,38,30.03,29.85,7,1,9,0.00
2013-7-11,83.8,67.5,56.8,60.4,53.7,47.8,92,65,34,30.15,30.03,6,1,7,0.00
2013-7-12,88.7,67.7,54.1,60.7,53.5,45.8,91,64,34,30.18,30.09,6,1,6,0.00
2013-7-13,87.3,70.9,56.7,63.2,56.8,50.2,93,65,33,30.21,30.12,10,2,10,0.00
2013-7-14,91.2,75.2,61.9,70.7,63.4,56.4,91,69,40,30.27,30.18,6,1,6,0.00
2013-7-15,92.5,77.4,66.7,75.9,69.0,63.3,92,77,52,30.30,30.24,6,1,6,0.00
2013-7-16,96.8,81.6,70.5,77.2,72.3,68.1,94,75,48,30.30,30.24,6,0,6,0.00
2013-7-17,95.9,82.6,73.2,77.2,72.6,66.4,93,73,48,30.33,30.18,6,0,6,0.00
2013-7-18,97.2,82.8,72.5,76.6,71.3,67.5,93,70,43,30.21,29.94,6,0,7,0.00
2013-7-19,95.5,82.7,72.7,74.7,69.7,63.5,83,66,44,29.94,29.77,6,1,10,0.00
2013-7-20,86.9,72.8,62.6,66.1,59.6,54.8,83,65,39,30.00,29.85,6,0,6,0.00
2013-7-21,84.0,68.2,59.9,68.1,60.9,55.1,98,79,52,30.00,29.88,7,1,7,0.00
2013-7-22,88.0,72.8,61.0,74.6,66.3,59.0,98,82,47,29.91,29.74,8,1,11,0.00
2013-7-23,78.3,67.8,57.9,64.4,56.1,46.4,93,68,39,30.03,29.74,7,1,8,0.00
2013-7-24,76.8,62.8,53.6,55.6,51.0,47.6,89,68,42,30.09,30.00,5,0,5,0.00
2013-7-25,82.9,66.5,52.2,62.6,55.2,48.7,92,69,45,30.12,30.00,8,1,8,0.00
2013-7-26,69.3,65.6,58.6,68.1,61.2,56.6,96,86,65,30.00,29.88,10,1,10,0.00
2013-7-27,63.7,57.4,54.1,57.4,50.5,45.5,98,79,56,29.97,29.88,7,1,7,0.00
2013-7-28,72.5,59.7,52.2,55.1,50.5,46.6,90,73,48,30.03,29.85,9,1,9,0.00
2013-7-29,78.8,62.9,53.1,60.1,53.2,49.3,90,72,46,30.21,30.03,5,0,5,0.00
2013-7-30,75.0,64.3,54.1,62.7,58.3,51.1,94,82,56,30.21,30.09,6,0,8,0.00
2013-7-31,77.7,66.3,60.3,70.7,64.1,59.1,98,93,69,30.12,29.97,6,0,6,0.00
2013-8-1,79.5,65.4,57.7,64.6,57.5,51.3,98,79,41,30.00,29.94,5,0,6,0.00
2013-8-2,79.7,68.0,59.2,70.7,62.4,54.8,98,83,59,29.97,29.88,4,0,5,0.00
2013-8-3,79.2,65.9,55.0,55.6,52.4,47.9,92,64,36,30.12,29.97,6,0,6,0.00
2013-8-4,78.3,63.7,53.4,60.9,54.5,50.0,96,73,47,30.24,30.12,6,1,6,0.00
2013-8-5,73.2,63.4,54.7,63.1,57.7,51.8,94,82,63,30.15,29.88,10,1,10,0.00
2013-8-6,88.2,72.2,61.3,72.1,65.8,59.1,97,82,56,29.91,29.83,8,0,8,0.00
2013-8-7,85.6,74.6,64.4,73.0,65.6,57.6,96,76,43,30.00,29.80,6,0,8,0.00
2013-8-8,81.1,67.8,59.7,62.6,55.7,45.8,96,69,35,30.09,30.00,6,1,6,0.00
2013-8-9,83.1,68.7,56.3,66.1,58.9,51.4,91,72,51,30.06,30.00,5,0,5,0.00
2013-8-10,79.9,66.3,55.6,62.1,55.3,52.1,92,70,40,30.15,30.06,4,0,4,0.00
2013-8-11,74.7,64.4,54.1,66.7,59.6,51.0,94,85,69,30.15,30.06,6,0,6,0.00
2013-8-12,81.7,69.7,63.3,71.0,64.4,56.5,98,84,50,30.06,29.91,3,0,3,0.00
2013-8-13,74.1,61.1,52.2,57.6,47.0,42.1,82,61,38,30.18,30.00,6,1,6,0.00
2013-8-14,75.9,60.2,48.7,52.4,47.6,44.3,89,66,37,30.24,30.15,4,0,5,0.00
2013-8-15,79.9,63.8,53.1,60.6,53.3,48.0,87,71,43,30.18,30.09,4,0,5,0.00
2013-8-16,82.4,66.3,54.7,60.5,54.0,49.2,93,67,40,30.21,30.12,4,0,6,0.00
2013-8-17,84.6,66.5,51.6,64.4,53.9,47.6,93,67,37,30.27,30.18,5,0,6,0.00
2013-8-18,83.8,66.1,52.2,63.5,54.5,48.3,92,69,40,30.24,30.12,5,0,6,0.00
2013-8-19,84.4,68.7,54.5,65.6,59.2,50.7,92,73,49,30.15,30.03,6,0,6,0.00
2013-8-20,88.3,72.0,59.4,68.7,61.7,56.7,95,73,43,30.12,30.03,9,1,12,0.00
2013-8-21,90.1,76.0,64.6,71.9,65.0,60.2,91,71,43,30.09,29.94,8,1,13,0.00
2013-8-22,75.2,70.1,62.2,71.2,66.2,59.9,97,88,73,30.18,30.03,8,0,8,0.00
2013-8-23,82.8,67.1,56.3,65.3,57.9,51.3,98,76,40,30.21,30.15,7,1,7,0.00
2013-8-24,87.3,68.7,53.1,66.3,58.3,50.2,96,72,42,30.27,30.18,8,1,8,0.00
2013-8-25,91.2,75.8,63.1,72.5,63.4,55.3,83,67,40,30.24,30.12,10,1,10,0.00
2013-8-26,91.2,77.9,69.1,75.9,68.4,62.8,82,73,57,30.15,30.00,7,0,7,0.00
2013-8-27,95.5,81.4,72.0,77.2,71.1,68.1,90,73,44,30.00,29.83,7,1,7,0.00
2013-8-28,86.9,76.1,66.7,71.9,67.5,61.9,90,76,54,30.09,29.85,3,0,3,0.00
2013-8-29,91.6,74.3,62.6,71.6,65.0,60.2,96,75,43,30.12,30.00,3,0,3,0.00
2013-8-30,96.3,73.9,64.8,78.2,68.2,56.1,98,84,37,30.03,29.80,10,1,10,0.00
2013-8-31,79.0,68.5,62.4,70.4,64.3,59.9,95,87,69,29.91,29.83,5,1,5,0.00
2013-9-1,86.7,70.3,61.0,74.4,65.7,58.9,98,86,63,29.85,29.74,5,0,6,0.00
2013-9-2,74.1,63.9,54.9,62.7,56.8,50.3,95,79,47,30.03,29.85,6,0,6,0.00
2013-9-3,78.1,61.5,50.2,58.4,52.6,47.7,93,75,44,30.12,30.03,6,0,6,0.00
2013-9-4,81.1,65.7,53.1,66.8,58.3,50.8,95,79,55,30.15,30.03,4,0,5,0.00
2013-9-5,76.6,64.8,51.6,62.2,51.9,43.0,89,65,40,30.30,30.15,6,1,8,0.00
2013-9-6,87.8,66.7,48.6,67.9,56.7,44.2,92,72,47,30.27,30.03,8,1,8,0.00
2013-9-7,82.2,71.1,63.3,70.7,64.8,60.3,93,81,63,30.03,29.91,8,1,8,0.00
2013-9-8,71.2,68.0,65.5,66.2,62.9,60.2,89,84,75,30.09,30.00,6,2,6,0.00
2013-9-9,93.6,76.9,64.6,74.8,69.1,62.4,96,79,50,30.00,29.83,8,2,8,0.00
2013-9-10,95.9,80.7,70.3,69.3,63.2,57.6,76,58,31,29.97,29.85,8,1,8,0.00
2013-9-11,83.3,73.6,65.7,71.5,63.9,61.1,86,72,54,30.12,29.97,5,0,5,0.00
2013-9-12,75.2,66.3,57.7,65.0,56.1,43.7,95,72,40,30.15,30.00,7,1,7,0.00
2013-9-13,70.0,55.7,46.4,44.3,40.4,35.8,79,58,34,30.24,30.15,6,1,6,0.00
2013-9-14,75.6,56.9,41.4,49.2,42.8,37.1,89,62,35,30.18,30.03,7,1,8,0.00
2013-9-15,58.6,55.6,53.6,57.2,51.4,42.3,97,86,63,30.24,30.00,5,1,5,0.00
2013-9-16,67.5,53.1,43.0,50.5,42.9,38.3,87,70,44,30.39,30.24,6,1,6,0.00
2013-9-17,72.7,55.1,41.0,55.1,46.7,37.1,94,75,48,30.36,30.12,8,1,8,0.00
2013-9-18,79.7,65.3,56.7,65.5,58.8,52.2,92,80,60,30.12,29.91,10,1,10,0.00
2013-9-19,82.9,71.5,66.2,73.2,67.4,61.9,98,87,68,29.97,29.80,11,2,11,0.00
2013-9-20,72.3,65.5,55.8,68.9,61.3,51.8,98,87,67,29.85,29.77,6,1,6,0.00
2013-9-21,58.3,54.2,48.2,52.6,46.7,41.0,92,77,55,29.97,29.83,6,1,8,0.00
2013-9-22,68.5,51.1,42.6,49.0,42.2,39.1,90,74,39,30.09,29.97,5,1,7,0.00
2013-9-23,69.6,52.5,40.6,53.8,44.2,37.1,94,75,46,30.12,30.06,7,1,7,0.00
2013-9-24,72.0,55.2,43.3,57.1,46.8,39.7,96,75,45,30.09,30.00,5,2,5,0.00
2013-9-25,72.5,56.5,47.8,58.7,48.3,43.2,95,76,45,30.03,29.97,3,1,3,0.00
2013-9-26,77.9,57.2,46.2,62.0,47.3,41.8,97,73,35,30.12,30.00,6,1,6,0.00
2013-9-27,81.9,59.6,44.8,56.7,47.9,40.5,94,68,36,30.18,30.09,8,1,8,0.00
2013-9-28,81.3,64.5,51.3,63.3,53.7,45.5,92,71,40,30.09,29.88,17,3,17,0.00
2013-9-29,72.5,56.7,46.6,52.6,45.0,37.2,94,68,34,30.09,29.97,5,0,5,0.00
2013-9-30,75.9,55.9,41.7,50.0,43.4,37.4,92,66,38,30.03,29.88,10,1,10,0.00
2013-10-1,83.5,65.2,49.3,62.6,56.4,43.2,93,75,45,30.00,29.85,12,1,15,0.00
2013-10-2,79.9,61.2,48.7,57.1,46.9,39.4,95,64,30,30.15,30.00,5,1,6,0.00
2013-10-3,75.9,65.0,55.0,69.1,61.2,47.6,97,88,70,30.03,29.88,10,1,11,0.00
2013-10-4,66.7,63.9,61.0,66.2,63.0,60.1,98,97,94,30.03,29.91,7,1,7,0.00
2013-10-5,73.2,65.5,62.2,72.1,64.7,60.0,98,97,79,30.00,29.77,17,0,17,0.00
2013-10-6,64.2,53.7,46.9,63.6,47.5,39.1,98,81,56,29.80,29.71,7,1,9,0.00
2013-10-7,68.0,52.7,45.3,49.8,44.5,40.6,95,76,46,30.09,29.74,6,1,9,0.00
2013-10-8,77.5,56.1,39.7,55.0,44.8,36.8,97,70,34,30.18,30.09,8,1,8,0.00
2013-10-9,75.4,56.7,45.5,53.3,44.9,40.1,93,68,34,30.24,30.15,8,1,8,0.00
2013-10-10,75.7,56.1,42.6,59.2,45.9,37.5,95,72,39,30.18,30.06,8,1,8,0.00
2013-10-11,75.6,59.0,47.1,58.8,48.9,42.7,94,71,44,30.09,29.97,11,2,11,0.00
2013-10-12,66.7,57.6,46.0,63.4,51.5,40.6,92,80,66,30.18,29.94,7,1,8,0.00
2013-10-13,64.4,48.5,39.4,45.7,38.3,32.8,94,71,37,30.39,30.18,6,0,8,0.00
2013-10-14,63.7,47.5,34.9,49.1,38.2,30.8,93,72,47,30.42,30.15,8,1,8,0.00
2013-10-15,60.6,52.9,45.1,59.8,49.5,41.2,97,88,78,30.15,29.77,6,1,8,0.00
2013-10-16,55.8,50.1,45.5,51.1,47.0,42.8,93,89,81,29.94,29.80,6,0,6,0.00
2013-10-17,52.3,46.6,39.7,49.5,44.5,38.4,96,92,82,29.94,29.83,4,0,4,0.00
2013-10-18,49.6,42.3,34.9,46.4,38.7,33.1,98,87,74,29.94,29.80,6,0,6,0.00
2013-10-19,54.7,43.9,37.0,41.3,36.6,32.7,94,77,51,29.91,29.74,9,1,9,0.00
2013-10-20,51.4,43.6,34.0,45.3,37.9,30.8,94,81,56,29.85,29.74,7,1,8,0.00
2013-10-21,45.3,40.3,30.4,43.4,30.4,20.3,93,68,51,29.94,29.77,6,1,7,0.00
2013-10-22,48.2,35.3,27.3,31.4,25.1,20.6,78,67,47,29.97,29.88,8,1,8,0.00
2013-10-23,47.7,36.0,27.0,28.1,23.6,20.7,80,62,41,30.00,29.91,6,1,7,0.00
2013-10-24,44.6,36.0,30.2,26.9,22.8,19.2,71,59,48,30.27,29.97,7,1,8,0.00
2013-10-25,54.7,39.4,25.3,31.3,24.0,18.5,79,56,38,30.33,29.91,14,2,17,0.00
2013-10-26,54.3,45.8,38.7,33.6,25.4,22.2,59,45,37,30.06,29.80,12,2,12,0.00
2013-10-27,58.3,41.2,29.5,32.8,26.1,21.6,75,56,36,30.06,29.91,8,1,10,0.00
2013-10-28,44.8,40.7,33.6,34.3,28.9,23.5,78,63,53,30.39,30.03,8,2,8,0.00
2013-10-29,55.2,43.4,35.4,43.5,34.8,23.6,88,72,57,30.36,30.12,10,2,10,0.00
2013-10-30,57.9,50.2,42.3,56.6,47.3,38.4,98,90,85,30.15,29.77,20,2,20,0.00
2013-10-31,61.9,56.9,44.4,61.3,56.1,42.0,98,97,91,29.77,29.26,8,1,8,0.00
2013-11-1,46.4,43.9,40.6,43.8,40.8,37.7,96,89,84,29.74,29.35,8,1,8,0.00
2013-11-2,46.4,41.0,37.9,41.7,37.7,35.2,97,88,70,30.12,29.74,8,0,8,0.00
2013-11-3,55.4,41.7,30.2,42.4,34.7,27.3,97,78,47,30.27,30.12,9,2,10,0.00
2013-11-4,55.2,48.6,42.3,41.3,36.9,33.1,80,65,46,30.24,30.06,20,4,20,0.00
2013-11-5,55.4,51.2,47.5,49.7,45.8,41.3,92,82,70,30.24,29.91,17,2,17,0.00
2013-11-6,55.8,44.3,29.8,55.2,41.4,24.6,98,89,78,30.12,29.74,13,2,13,0.00
2013-11-7,38.7,15.1,0.0,31.9,29.2,23.2,88,41,76,30.18,0.00,4,0,4,0.00
2013-11-8,0.0,0.0,0.0,31.7,31.7,31.7,0,0,100,0.00,0.00,0,0,0,0.00
2013-11-9,0.0,0.0,0.0,31.7,31.7,31.7,0,0,100,0.00,0.00,0,0,0,0.00
2013-11-10,0.0,0.0,0.0,31.7,31.7,31.7,0,0,100,0.00,0.00,0,0,0,0.00
2013-11-11,0.0,0.0,0.0,31.7,31.7,31.7,0,0,100,0.00,0.00,0,0,0,0.00
2013-11-12,0.0,0.0,0.0,31.7,31.7,31.7,0,0,100,0.00,0.00,0,0,0,0.00
2013-11-13,0.0,0.0,0.0,31.7,31.7,31.7,0,0,100,0.00,0.00,0,0,0,0.00
2013-11-14,0.0,0.0,0.0,31.7,31.7,31.7,0,0,100,0.00,0.00,0,0,0,0.00
2013-11-15,0.0,0.0,0.0,31.7,31.7,31.7,0,0,100,0.00,0.00,0,0,0,0.00
2013-11-16,0.0,0.0,0.0,31.7,31.7,31.7,0,0,100,0.00,0.00,0,0,0,0.00
2013-11-17,57.2,22.9,0.0,54.0,37.5,0.0,97,44,79,29.65,0.00,9,0,13,0.00
2013-11-18,38.7,33.8,25.2,34.2,24.5,17.6,84,69,51,30.21,29.65,9,1,9,0.00
2013-11-19,43.7,29.8,21.0,27.8,21.5,15.3,84,72,51,30.33,30.21,6,1,7,0.00
2013-11-20,45.3,36.4,28.0,32.9,26.9,23.6,86,69,48,30.24,30.06,14,3,14,0.00
2013-11-21,45.3,41.3,37.0,40.8,37.2,32.9,93,85,79,30.21,30.09,4,0,4,0.00
2013-11-22,39.6,32.6,23.5,36.0,24.6,15.2,89,73,50,30.42,30.21,8,1,8,0.00
2013-11-23,23.9,18.3,10.9,15.5,3.0,-5.4,70,51,44,30.62,30.33,10,2,10,0.00
2013-11-24,30.2,18.3,9.1,9.8,0.8,-7.0,60,46,41,30.62,30.24,15,2,15,0.00
2013-11-25,29.3,26.1,20.8,22.0,15.4,3.0,75,65,44,30.24,30.00,11,2,13,0.00
2013-11-26,31.3,25.6,12.7,24.4,13.9,-2.4,77,62,45,30.15,29.97,8,1,10,0.00
2013-11-27,30.0,18.1,8.6,12.2,3.1,-6.3,62,51,45,30.18,30.12,8,1,8,0.00
2013-11-28,30.4,23.1,15.1,13.3,9.4,4.6,65,56,46,30.42,30.12,6,1,7,0.00
2013-11-29,34.7,23.0,10.0,17.6,11.2,0.6,73,61,45,30.56,30.33,7,1,8,0.00
2013-11-30,49.3,33.9,24.4,30.4,21.9,14.8,77,62,46,30.33,30.00,10,2,10,0.00
2013-12-1,44.1,32.3,26.8,27.6,22.6,17.6,82,68,46,30.09,29.97,6,1,6,0.00
2013-12-2,41.4,31.7,21.4,33.2,24.0,15.0,87,73,56,29.97,29.77,8,2,8,0.00
2013-12-3,40.1,37.7,33.4,39.6,36.6,29.6,98,96,85,29.77,29.68,12,2,12,0.00
2013-12-4,50.5,43.3,36.5,50.0,42.4,32.4,98,97,85,29.74,29.47,9,2,9,0.00
2013-12-5,36.5,25.4,16.5,32.4,15.2,4.7,87,66,51,30.21,29.62,8,2,8,0.00
2013-12-6,18.5,12.9,7.9,5.4,0.4,-5.7,62,57,49,30.48,30.18,8,1,8,0.00
2013-12-7,21.0,9.1,2.3,3.9,-5.5,-11.0,53,51,46,30.59,30.48,6,0,7,0.00
2013-12-8,24.8,18.2,7.5,20.7,8.7,-7.7,84,67,49,30.53,29.88,8,2,8,0.00
2013-12-9,24.4,13.8,-2.4,20.0,3.2,-16.9,83,63,48,30.12,29.85,8,1,8,0.00
2013-12-10,22.6,8.6,-5.4,8.5,-5.9,-19.7,66,51,48,30.21,29.88,9,2,9,0.00
2013-12-11,14.5,7.9,-4.5,6.2,-5.8,-20.1,69,53,46,30.44,30.18,7,1,7,0.00
2013-12-12,21.2,8.7,-4.4,5.1,-6.6,-19.9,61,49,46,30.42,30.12,7,1,8,0.00
2013-12-13,27.0,21.1,12.0,20.2,11.8,0.8,79,67,59,30.15,30.09,11,2,11,0.00
2013-12-14,28.6,25.1,20.3,21.9,19.2,14.2,83,78,73,30.12,29.88,10,3,11,0.00
2013-12-15,21.4,13.3,5.0,15.1,0.4,-10.9,78,57,45,30.09,29.85,6,1,8,0.00
2013-12-16,18.5,9.7,-1.1,5.9,-4.0,-16.5,68,53,47,30.09,29.94,9,1,10,0.00
2013-12-17,36.1,24.5,14.4,23.3,14.9,5.9,81,67,55,30.00,29.85,6,1,6,0.00
2013-12-18,34.2,24.6,10.2,20.8,10.7,-1.3,64,56,41,30.06,29.74,17,2,17,0.00
2013-12-19,32.5,29.7,22.5,29.9,22.9,15.4,90,76,63,29.94,29.74,10,2,10,0.00
2013-12-20,32.5,28.8,25.7,29.9,26.1,22.6,92,90,86,29.83,29.77,7,2,8,0.00
2013-12-21,32.5,28.4,24.6,31.8,26.5,22.1,98,93,87,29.85,29.65,8,2,9,0.00
2013-12-22,31.3,26.4,20.3,28.0,22.5,14.8,95,85,75,30.06,29.62,6,1,7,0.00
2013-12-23,20.5,11.8,0.7,16.1,4.2,-9.0,83,71,62,30.33,30.06,0,0,0,0.00
2013-12-24,21.2,5.5,-5.1,8.0,-5.7,-14.5,63,59,52,30.44,30.27,0,0,0,0.00
2013-12-25,23.0,20.1,12.0,17.9,13.7,-1.1,81,76,55,30.27,30.03,3,0,4,0.00
2013-12-26,25.5,20.8,10.0,20.1,14.0,2.8,82,75,68,30.21,30.03,6,1,7,0.00
2013-12-27,36.3,27.8,15.8,27.3,21.0,9.3,85,76,63,30.21,29.97,8,1,11,0.00
2013-12-28,44.4,34.7,22.3,31.6,25.8,16.8,87,70,54,30.00,29.74,13,1,13,0.00
2013-12-29,36.9,22.0,1.6,28.5,12.4,-10.9,83,66,55,30.15,29.71,10,2,11,0.00
2013-12-30,7.0,0.9,-6.9,-5.8,-11.5,-18.8,55,55,55,30.27,30.12,5,0,5,0.00
2013-12-31,10.4,5.5,-0.9,-2.6,-7.2,-13.3,55,55,55,30.30,30.09,6,1,6,0.00
2014-1-1,16.7,9.6,3.6,8.0,-1.2,-9.0,68,61,55,30.27,30.21,9,3,9,0.00
2014-1-2,17.6,8.3,-4.0,5.2,-3.3,-18.6,68,59,48,30.36,30.15,7,2,8,0.00